sensor_id;sensor_type;location;lat;lon;timestamp;pressure;altitude;pressure_sealevel;temperature;humidity
50710;BME280;37033;49.994;21.992;2023-11-19T00:00:30;99878.38;;;0.69;93.72
50710;BME280;37033;49.994;21.992;2023-11-19T00:03:20;99878.36;;;0.73;93.69
50710;BME280;37033;49.994;21.992;2023-11-19T00:05:51;99878.12;;;0.75;93.66
50710;BME280;37033;49.994;21.992;2023-11-19T00:08:22;99875.87;;;0.76;93.62
50710;BME280;37033;49.994;21.992;2023-11-19T00:10:54;99874.73;;;0.78;93.66
50710;BME280;37033;49.994;21.992;2023-11-19T00:13:24;99871.64;;;0.81;93.74
50710;BME280;37033;49.994;21.992;2023-11-19T00:15:56;99870.23;;;0.82;93.60
50710;BME280;37033;49.994;21.992;2023-11-19T00:18:27;99860.67;;;0.82;93.59
50710;BME280;37033;49.994;21.992;2023-11-19T00:20:57;99855.83;;;0.84;93.51
50710;BME280;37033;49.994;21.992;2023-11-19T00:23:28;99862.02;;;0.82;93.44
50710;BME280;37033;49.994;21.992;2023-11-19T00:25:59;99868.96;;;0.79;93.14
50710;BME280;37033;49.994;21.992;2023-11-19T00:28:29;99866.81;;;0.77;93.37
50710;BME280;37033;49.994;21.992;2023-11-19T00:31:00;99863.11;;;0.79;93.38
50710;BME280;37033;49.994;21.992;2023-11-19T00:33:32;99864.73;;;0.80;93.44
50710;BME280;37033;49.994;21.992;2023-11-19T00:36:03;99875.45;;;0.80;93.44
50710;BME280;37033;49.994;21.992;2023-11-19T00:38:33;99872.06;;;0.78;93.25
50710;BME280;37033;49.994;21.992;2023-11-19T00:41:04;99866.55;;;0.76;93.27
50710;BME280;37033;49.994;21.992;2023-11-19T00:43:35;99866.95;;;0.74;93.16
50710;BME280;37033;49.994;21.992;2023-11-19T00:46:08;99861.46;;;0.72;93.17
50710;BME280;37033;49.994;21.992;2023-11-19T00:48:40;99859.98;;;0.71;93.45
50710;BME280;37033;49.994;21.992;2023-11-19T00:51:12;99857.48;;;0.72;93.32
50710;BME280;37033;49.994;21.992;2023-11-19T00:53:43;99859.85;;;0.71;93.29
50710;BME280;37033;49.994;21.992;2023-11-19T00:56:14;99867.52;;;0.71;93.37
50710;BME280;37033;49.994;21.992;2023-11-19T00:58:46;99864.61;;;0.71;93.36
50710;BME280;37033;49.994;21.992;2023-11-19T01:01:17;99859.69;;;0.72;93.48
50710;BME280;37033;49.994;21.992;2023-11-19T01:03:47;99850.63;;;0.72;93.29
50710;BME280;37033;49.994;21.992;2023-11-19T01:06:27;99842.80;;;0.72;93.32
50710;BME280;37033;49.994;21.992;2023-11-19T01:08:58;99835.00;;;0.71;93.21
50710;BME280;37033;49.994;21.992;2023-11-19T01:11:29;99827.18;;;0.71;93.24
50710;BME280;37033;49.994;21.992;2023-11-19T01:14:00;99820.92;;;0.71;93.29
50710;BME280;37033;49.994;21.992;2023-11-19T01:16:31;99819.42;;;0.72;93.22
50710;BME280;37033;49.994;21.992;2023-11-19T01:19:02;99830.27;;;0.72;93.39
50710;BME280;37033;49.994;21.992;2023-11-19T01:21:34;99838.55;;;0.73;93.15
50710;BME280;37033;49.994;21.992;2023-11-19T01:24:06;99832.66;;;0.73;93.31
50710;BME280;37033;49.994;21.992;2023-11-19T01:26:38;99833.98;;;0.74;93.33
50710;BME280;37033;49.994;21.992;2023-11-19T01:29:14;99830.70;;;0.75;93.27
50710;BME280;37033;49.994;21.992;2023-11-19T01:31:46;99829.19;;;0.75;93.24
50710;BME280;37033;49.994;21.992;2023-11-19T01:34:17;99825.02;;;0.76;93.32
50710;BME280;37033;49.994;21.992;2023-11-19T01:36:49;99818.11;;;0.77;93.25
50710;BME280;37033;49.994;21.992;2023-11-19T01:39:20;99804.85;;;0.78;93.29
50710;BME280;37033;49.994;21.992;2023-11-19T01:41:51;99800.92;;;0.78;93.24
50710;BME280;37033;49.994;21.992;2023-11-19T01:44:21;99793.45;;;0.79;93.12
50710;BME280;37033;49.994;21.992;2023-11-19T01:46:52;99789.81;;;0.78;93.21
50710;BME280;37033;49.994;21.992;2023-11-19T01:49:23;99783.29;;;0.79;93.18
50710;BME280;37033;49.994;21.992;2023-11-19T01:51:54;99774.95;;;0.79;93.06
50710;BME280;37033;49.994;21.992;2023-11-19T01:54:24;99769.11;;;0.78;93.10
50710;BME280;37033;49.994;21.992;2023-11-19T01:56:57;99763.28;;;0.78;92.99
50710;BME280;37033;49.994;21.992;2023-11-19T01:59:28;99761.02;;;0.79;93.10
50710;BME280;37033;49.994;21.992;2023-11-19T02:01:58;99762.58;;;0.79;93.05
50710;BME280;37033;49.994;21.992;2023-11-19T02:04:29;99765.02;;;0.80;93.17
50710;BME280;37033;49.994;21.992;2023-11-19T02:07:00;99771.02;;;0.81;93.15
50710;BME280;37033;49.994;21.992;2023-11-19T02:09:31;99770.11;;;0.81;93.12
50710;BME280;37033;49.994;21.992;2023-11-19T02:12:01;99770.97;;;0.81;93.29
50710;BME280;37033;49.994;21.992;2023-11-19T02:14:33;99763.48;;;0.83;93.11
50710;BME280;37033;49.994;21.992;2023-11-19T02:17:04;99756.42;;;0.84;93.10
50710;BME280;37033;49.994;21.992;2023-11-19T02:19:34;99753.22;;;0.84;93.10
50710;BME280;37033;49.994;21.992;2023-11-19T02:22:05;99752.59;;;0.83;93.00
50710;BME280;37033;49.994;21.992;2023-11-19T02:24:36;99752.89;;;0.83;93.10
50710;BME280;37033;49.994;21.992;2023-11-19T02:27:14;99754.06;;;0.84;93.07
50710;BME280;37033;49.994;21.992;2023-11-19T02:29:46;99750.61;;;0.85;93.05
50710;BME280;37033;49.994;21.992;2023-11-19T02:32:17;99741.38;;;0.86;93.05
50710;BME280;37033;49.994;21.992;2023-11-19T02:34:47;99733.20;;;0.86;92.99
50710;BME280;37033;49.994;21.992;2023-11-19T02:37:18;99730.53;;;0.86;92.99
50710;BME280;37033;49.994;21.992;2023-11-19T02:39:49;99735.95;;;0.86;93.05
50710;BME280;37033;49.994;21.992;2023-11-19T02:42:20;99741.25;;;0.85;92.90
50710;BME280;37033;49.994;21.992;2023-11-19T02:44:51;99736.92;;;0.86;92.96
50710;BME280;37033;49.994;21.992;2023-11-19T02:47:21;99734.55;;;0.86;92.83
50710;BME280;37033;49.994;21.992;2023-11-19T02:49:53;99731.84;;;0.85;92.88
50710;BME280;37033;49.994;21.992;2023-11-19T02:52:23;99721.61;;;0.84;92.79
50710;BME280;37033;49.994;21.992;2023-11-19T02:54:54;99720.27;;;0.83;92.71
50710;BME280;37033;49.994;21.992;2023-11-19T02:57:25;99713.11;;;0.83;92.76
50710;BME280;37033;49.994;21.992;2023-11-19T02:59:55;99706.85;;;0.84;92.72
50710;BME280;37033;49.994;21.992;2023-11-19T03:02:26;99706.79;;;0.84;92.76
50710;BME280;37033;49.994;21.992;2023-11-19T03:05:03;99706.75;;;0.84;92.76
50710;BME280;37033;49.994;21.992;2023-11-19T03:07:34;99699.73;;;0.83;92.68
50710;BME280;37033;49.994;21.992;2023-11-19T03:10:06;99695.59;;;0.82;92.78
50710;BME280;37033;49.994;21.992;2023-11-19T03:12:38;99697.42;;;0.82;92.76
50710;BME280;37033;49.994;21.992;2023-11-19T03:15:10;99695.61;;;0.82;92.81
50710;BME280;37033;49.994;21.992;2023-11-19T03:17:41;99696.92;;;0.83;92.79
50710;BME280;37033;49.994;21.992;2023-11-19T03:20:13;99692.40;;;0.84;92.81
50710;BME280;37033;49.994;21.992;2023-11-19T03:22:46;99688.96;;;0.84;92.74
50710;BME280;37033;49.994;21.992;2023-11-19T03:25:17;99684.34;;;0.84;92.94
50710;BME280;37033;49.994;21.992;2023-11-19T03:27:47;99680.08;;;0.85;92.77
50710;BME280;37033;49.994;21.992;2023-11-19T03:30:18;99676.61;;;0.86;92.90
50710;BME280;37033;49.994;21.992;2023-11-19T03:32:50;99674.90;;;0.87;92.88
50710;BME280;37033;49.994;21.992;2023-11-19T03:35:20;99670.13;;;0.86;92.85
50710;BME280;37033;49.994;21.992;2023-11-19T03:37:52;99671.55;;;0.86;92.66
50710;BME280;37033;49.994;21.992;2023-11-19T03:40:22;99675.64;;;0.86;92.79
50710;BME280;37033;49.994;21.992;2023-11-19T03:42:54;99668.55;;;0.86;92.79
50710;BME280;37033;49.994;21.992;2023-11-19T03:45:26;99662.32;;;0.86;92.61
50710;BME280;37033;49.994;21.992;2023-11-19T03:47:56;99655.98;;;0.85;92.67
50710;BME280;37033;49.994;21.992;2023-11-19T03:50:27;99652.52;;;0.84;92.66
50710;BME280;37033;49.994;21.992;2023-11-19T03:52:57;99644.81;;;0.83;92.67
50710;BME280;37033;49.994;21.992;2023-11-19T03:55:28;99644.17;;;0.83;92.71
50710;BME280;37033;49.994;21.992;2023-11-19T03:57:59;99642.23;;;0.82;92.75
50710;BME280;37033;49.994;21.992;2023-11-19T04:00:29;99640.47;;;0.81;92.73
50710;BME280;37033;49.994;21.992;2023-11-19T04:03:00;99637.58;;;0.79;92.76
50710;BME280;37033;49.994;21.992;2023-11-19T04:05:31;99640.02;;;0.79;92.73
50710;BME280;37033;49.994;21.992;2023-11-19T04:08:01;99635.98;;;0.81;92.76
50710;BME280;37033;49.994;21.992;2023-11-19T04:10:32;99627.21;;;0.79;92.76
50710;BME280;37033;49.994;21.992;2023-11-19T04:13:03;99619.71;;;0.79;92.72
50710;BME280;37033;49.994;21.992;2023-11-19T04:15:33;99621.52;;;0.79;92.75
50710;BME280;37033;49.994;21.992;2023-11-19T04:18:04;99618.73;;;0.77;92.76
50710;BME280;37033;49.994;21.992;2023-11-19T04:20:35;99607.83;;;0.77;92.72
50710;BME280;37033;49.994;21.992;2023-11-19T04:23:05;99609.46;;;0.77;92.64
50710;BME280;37033;49.994;21.992;2023-11-19T04:25:37;99620.10;;;0.77;92.74
50710;BME280;37033;49.994;21.992;2023-11-19T04:28:08;99624.54;;;0.77;92.76
50710;BME280;37033;49.994;21.992;2023-11-19T04:30:39;99625.65;;;0.77;92.89
50710;BME280;37033;49.994;21.992;2023-11-19T04:33:09;99622.17;;;0.76;92.81
50710;BME280;37033;49.994;21.992;2023-11-19T04:35:40;99620.00;;;0.77;92.69
50710;BME280;37033;49.994;21.992;2023-11-19T04:38:11;99611.64;;;0.76;92.75
50710;BME280;37033;49.994;21.992;2023-11-19T04:40:42;99606.65;;;0.76;92.72
50710;BME280;37033;49.994;21.992;2023-11-19T04:43:13;99604.55;;;0.76;92.86
50710;BME280;37033;49.994;21.992;2023-11-19T04:45:44;99603.48;;;0.76;92.72
50710;BME280;37033;49.994;21.992;2023-11-19T04:48:15;99595.21;;;0.77;92.73
50710;BME280;37033;49.994;21.992;2023-11-19T04:50:46;99584.36;;;0.78;92.86
50710;BME280;37033;49.994;21.992;2023-11-19T04:53:16;99583.00;;;0.79;92.80
50710;BME280;37033;49.994;21.992;2023-11-19T04:55:47;99581.66;;;0.80;92.94
50710;BME280;37033;49.994;21.992;2023-11-19T04:58:18;99584.20;;;0.81;92.91
50710;BME280;37033;49.994;21.992;2023-11-19T05:00:48;99583.66;;;0.81;92.84
50710;BME280;37033;49.994;21.992;2023-11-19T05:03:19;99581.33;;;0.81;92.85
50710;BME280;37033;49.994;21.992;2023-11-19T05:05:50;99576.52;;;0.81;92.72
50710;BME280;37033;49.994;21.992;2023-11-19T05:08:20;99570.64;;;0.79;92.68
50710;BME280;37033;49.994;21.992;2023-11-19T05:10:51;99564.41;;;0.78;92.70
50710;BME280;37033;49.994;21.992;2023-11-19T05:13:22;99554.64;;;0.77;92.69
50710;BME280;37033;49.994;21.992;2023-11-19T05:15:52;99546.38;;;0.78;92.79
50710;BME280;37033;49.994;21.992;2023-11-19T05:18:23;99537.55;;;0.77;92.77
50710;BME280;37033;49.994;21.992;2023-11-19T05:20:54;99528.16;;;0.76;92.67
50710;BME280;37033;49.994;21.992;2023-11-19T05:23:25;99526.42;;;0.76;92.73
50710;BME280;37033;49.994;21.992;2023-11-19T05:25:55;99523.70;;;0.76;92.73
50710;BME280;37033;49.994;21.992;2023-11-19T05:28:27;99520.47;;;0.75;92.83
50710;BME280;37033;49.994;21.992;2023-11-19T05:30:58;99515.52;;;0.73;92.69
50710;BME280;37033;49.994;21.992;2023-11-19T05:33:29;99508.98;;;0.71;92.71
50710;BME280;37033;49.994;21.992;2023-11-19T05:35:59;99506.24;;;0.70;92.70
50710;BME280;37033;49.994;21.992;2023-11-19T05:38:32;99502.20;;;0.69;92.69
50710;BME280;37033;49.994;21.992;2023-11-19T05:41:03;99501.40;;;0.69;92.84
50710;BME280;37033;49.994;21.992;2023-11-19T05:43:34;99503.71;;;0.69;92.92
50710;BME280;37033;49.994;21.992;2023-11-19T05:46:05;99498.51;;;0.66;92.79
50710;BME280;37033;49.994;21.992;2023-11-19T05:48:36;99494.02;;;0.64;92.72
50710;BME280;37033;49.994;21.992;2023-11-19T05:51:07;99480.60;;;0.64;92.94
50710;BME280;37033;49.994;21.992;2023-11-19T05:53:38;99480.80;;;0.64;92.77
50710;BME280;37033;49.994;21.992;2023-11-19T05:56:09;99484.17;;;0.64;92.96
50710;BME280;37033;49.994;21.992;2023-11-19T05:58:40;99483.23;;;0.64;92.97
50710;BME280;37033;49.994;21.992;2023-11-19T06:01:11;99482.92;;;0.65;93.02
50710;BME280;37033;49.994;21.992;2023-11-19T06:03:41;99491.47;;;0.64;92.99
50710;BME280;37033;49.994;21.992;2023-11-19T06:06:15;99496.30;;;0.63;93.10
50710;BME280;37033;49.994;21.992;2023-11-19T06:08:45;99497.98;;;0.61;92.97
50710;BME280;37033;49.994;21.992;2023-11-19T06:11:16;99498.49;;;0.59;93.06
50710;BME280;37033;49.994;21.992;2023-11-19T06:13:49;99496.00;;;0.60;92.94
50710;BME280;37033;49.994;21.992;2023-11-19T06:16:20;99492.27;;;0.61;93.04
50710;BME280;37033;49.994;21.992;2023-11-19T06:18:51;99490.20;;;0.62;93.16
50710;BME280;37033;49.994;21.992;2023-11-19T06:21:22;99493.05;;;0.62;93.08
50710;BME280;37033;49.994;21.992;2023-11-19T06:23:54;99492.38;;;0.62;93.08
50710;BME280;37033;49.994;21.992;2023-11-19T06:26:24;99494.14;;;0.62;93.08
50710;BME280;37033;49.994;21.992;2023-11-19T06:28:55;99495.55;;;0.62;93.16
50710;BME280;37033;49.994;21.992;2023-11-19T06:31:26;99489.73;;;0.63;93.24
50710;BME280;37033;49.994;21.992;2023-11-19T06:33:56;99485.70;;;0.64;93.30
50710;BME280;37033;49.994;21.992;2023-11-19T06:36:27;99475.50;;;0.66;93.16
50710;BME280;37033;49.994;21.992;2023-11-19T06:38:57;99467.14;;;0.67;93.19
50710;BME280;37033;49.994;21.992;2023-11-19T06:41:28;99456.73;;;0.68;93.24
50710;BME280;37033;49.994;21.992;2023-11-19T06:43:59;99456.48;;;0.68;93.28
50710;BME280;37033;49.994;21.992;2023-11-19T06:46:30;99463.82;;;0.68;93.16
50710;BME280;37033;49.994;21.992;2023-11-19T06:49:00;99462.31;;;0.69;93.16
50710;BME280;37033;49.994;21.992;2023-11-19T06:51:31;99459.69;;;0.70;93.24
50710;BME280;37033;49.994;21.992;2023-11-19T06:54:02;99458.48;;;0.71;93.24
50710;BME280;37033;49.994;21.992;2023-11-19T06:56:33;99453.58;;;0.73;93.13
50710;BME280;37033;49.994;21.992;2023-11-19T06:59:03;99454.25;;;0.74;93.19
50710;BME280;37033;49.994;21.992;2023-11-19T07:01:37;99455.38;;;0.75;93.11
50710;BME280;37033;49.994;21.992;2023-11-19T07:04:07;99454.85;;;0.75;93.14
50710;BME280;37033;49.994;21.992;2023-11-19T07:06:38;99453.80;;;0.76;93.21
50710;BME280;37033;49.994;21.992;2023-11-19T07:09:10;99457.41;;;0.77;93.24
50710;BME280;37033;49.994;21.992;2023-11-19T07:11:41;99455.48;;;0.78;93.13
50710;BME280;37033;49.994;21.992;2023-11-19T07:14:13;99459.77;;;0.80;93.02
50710;BME280;37033;49.994;21.992;2023-11-19T07:16:44;99460.30;;;0.82;93.01
50710;BME280;37033;49.994;21.992;2023-11-19T07:19:15;99472.02;;;0.84;93.17
50710;BME280;37033;49.994;21.992;2023-11-19T07:21:45;99484.89;;;0.85;93.11
50710;BME280;37033;49.994;21.992;2023-11-19T07:24:16;99487.60;;;0.86;93.10
50710;BME280;37033;49.994;21.992;2023-11-19T07:26:48;99485.46;;;0.88;92.94
50710;BME280;37033;49.994;21.992;2023-11-19T07:29:18;99482.54;;;0.90;93.05
50710;BME280;37033;49.994;21.992;2023-11-19T07:31:51;99483.82;;;0.91;92.98
50710;BME280;37033;49.994;21.992;2023-11-19T07:34:21;99483.31;;;0.93;92.95
50710;BME280;37033;49.994;21.992;2023-11-19T07:36:53;99484.91;;;0.94;93.01
50710;BME280;37033;49.994;21.992;2023-11-19T07:39:24;99483.80;;;0.96;93.03
50710;BME280;37033;49.994;21.992;2023-11-19T07:41:54;99479.59;;;0.98;93.10
50710;BME280;37033;49.994;21.992;2023-11-19T07:44:25;99481.39;;;1.00;93.07
50710;BME280;37033;49.994;21.992;2023-11-19T07:46:56;99478.91;;;1.02;93.03
50710;BME280;37033;49.994;21.992;2023-11-19T07:49:27;99476.28;;;1.04;93.14
50710;BME280;37033;49.994;21.992;2023-11-19T07:51:58;99471.05;;;1.06;93.18
50710;BME280;37033;49.994;21.992;2023-11-19T07:54:29;99462.98;;;1.10;93.07
50710;BME280;37033;49.994;21.992;2023-11-19T07:56:59;99449.19;;;1.13;93.18
50710;BME280;37033;49.994;21.992;2023-11-19T07:59:30;99439.50;;;1.16;93.10
50710;BME280;37033;49.994;21.992;2023-11-19T08:02:01;99433.06;;;1.20;93.06
50710;BME280;37033;49.994;21.992;2023-11-19T08:04:32;99423.80;;;1.23;93.04
50710;BME280;37033;49.994;21.992;2023-11-19T08:07:04;99412.95;;;1.24;92.85
50710;BME280;37033;49.994;21.992;2023-11-19T08:09:34;99409.70;;;1.24;92.72
50710;BME280;37033;49.994;21.992;2023-11-19T08:12:07;99414.67;;;1.26;92.73
50710;BME280;37033;49.994;21.992;2023-11-19T08:14:38;99416.10;;;1.27;92.70
50710;BME280;37033;49.994;21.992;2023-11-19T08:17:09;99415.74;;;1.29;92.55
50710;BME280;37033;49.994;21.992;2023-11-19T08:19:40;99414.35;;;1.32;92.63
50710;BME280;37033;49.994;21.992;2023-11-19T08:22:10;99410.78;;;1.35;92.60
50710;BME280;37033;49.994;21.992;2023-11-19T08:24:41;99406.24;;;1.37;92.54
50710;BME280;37033;49.994;21.992;2023-11-19T08:27:11;99401.36;;;1.39;92.38
50710;BME280;37033;49.994;21.992;2023-11-19T08:29:42;99396.78;;;1.42;92.46
50710;BME280;37033;49.994;21.992;2023-11-19T08:32:13;99396.08;;;1.43;92.17
50710;BME280;37033;49.994;21.992;2023-11-19T08:34:43;99393.15;;;1.44;92.12
50710;BME280;37033;49.994;21.992;2023-11-19T08:37:14;99390.17;;;1.46;92.11
50710;BME280;37033;49.994;21.992;2023-11-19T08:39:47;99379.70;;;1.47;92.08
50710;BME280;37033;49.994;21.992;2023-11-19T08:42:18;99377.83;;;1.48;91.96
50710;BME280;37033;49.994;21.992;2023-11-19T08:44:51;99360.88;;;1.49;91.88
50710;BME280;37033;49.994;21.992;2023-11-19T08:47:23;99343.85;;;1.51;91.90
50710;BME280;37033;49.994;21.992;2023-11-19T08:49:54;99330.77;;;1.50;91.79
50710;BME280;37033;49.994;21.992;2023-11-19T08:52:25;99332.63;;;1.48;91.58
50710;BME280;37033;49.994;21.992;2023-11-19T08:54:56;99337.77;;;1.47;91.52
50710;BME280;37033;49.994;21.992;2023-11-19T08:57:26;99332.61;;;1.46;91.58
50710;BME280;37033;49.994;21.992;2023-11-19T08:59:57;99330.62;;;1.48;91.72
50710;BME280;37033;49.994;21.992;2023-11-19T09:02:27;99323.09;;;1.47;91.44
50710;BME280;37033;49.994;21.992;2023-11-19T09:04:58;99323.74;;;1.46;91.58
50710;BME280;37033;49.994;21.992;2023-11-19T09:07:29;99319.17;;;1.46;91.42
50710;BME280;37033;49.994;21.992;2023-11-19T09:09:59;99316.27;;;1.44;91.27
50710;BME280;37033;49.994;21.992;2023-11-19T09:12:30;99306.25;;;1.45;91.43
50710;BME280;37033;49.994;21.992;2023-11-19T09:15:01;99305.87;;;1.46;91.48
50710;BME280;37033;49.994;21.992;2023-11-19T09:17:32;99307.86;;;1.47;91.43
50710;BME280;37033;49.994;21.992;2023-11-19T09:20:02;99297.42;;;1.47;91.51
50710;BME280;37033;49.994;21.992;2023-11-19T09:22:33;99296.96;;;1.49;91.49
50710;BME280;37033;49.994;21.992;2023-11-19T09:25:05;99290.55;;;1.50;91.43
50710;BME280;37033;49.994;21.992;2023-11-19T09:27:35;99283.70;;;1.49;91.31
50710;BME280;37033;49.994;21.992;2023-11-19T09:30:08;99285.48;;;1.49;91.16
50710;BME280;37033;49.994;21.992;2023-11-19T09:32:39;99297.45;;;1.52;91.35
50710;BME280;37033;49.994;21.992;2023-11-19T09:35:11;99302.04;;;1.55;91.33
50710;BME280;37033;49.994;21.992;2023-11-19T09:37:44;99300.55;;;1.61;91.28
50710;BME280;37033;49.994;21.992;2023-11-19T09:40:15;99298.95;;;1.65;91.42
50710;BME280;37033;49.994;21.992;2023-11-19T09:42:47;99297.48;;;1.68;91.04
50710;BME280;37033;49.994;21.992;2023-11-19T09:45:19;99301.98;;;1.72;91.08
50710;BME280;37033;49.994;21.992;2023-11-19T09:47:52;99301.26;;;1.74;90.74
50710;BME280;37033;49.994;21.992;2023-11-19T09:50:23;99297.60;;;1.76;90.58
50710;BME280;37033;49.994;21.992;2023-11-19T09:52:54;99293.89;;;1.79;90.47
50710;BME280;37033;49.994;21.992;2023-11-19T09:55:25;99289.52;;;1.83;90.40
50710;BME280;37033;49.994;21.992;2023-11-19T09:57:56;99284.11;;;1.84;90.40
50710;BME280;37033;49.994;21.992;2023-11-19T10:00:29;99267.52;;;1.86;90.07
50710;BME280;37033;49.994;21.992;2023-11-19T10:03:00;99267.10;;;1.86;89.98
50710;BME280;37033;49.994;21.992;2023-11-19T10:05:34;99268.43;;;1.87;90.00
50710;BME280;37033;49.994;21.992;2023-11-19T10:08:08;99261.15;;;1.88;89.91
50710;BME280;37033;49.994;21.992;2023-11-19T10:10:40;99259.80;;;1.89;89.91
50710;BME280;37033;49.994;21.992;2023-11-19T10:13:11;99249.95;;;1.90;89.89
50710;BME280;37033;49.994;21.992;2023-11-19T10:15:44;99246.44;;;1.93;89.92
50710;BME280;37033;49.994;21.992;2023-11-19T10:18:16;99245.84;;;1.92;89.38
50710;BME280;37033;49.994;21.992;2023-11-19T10:20:47;99240.92;;;1.91;89.29
50710;BME280;37033;49.994;21.992;2023-11-19T10:23:18;99229.45;;;1.90;89.35
50710;BME280;37033;49.994;21.992;2023-11-19T10:25:49;99224.69;;;1.89;89.26
50710;BME280;37033;49.994;21.992;2023-11-19T10:28:23;99215.83;;;1.89;89.22
50710;BME280;37033;49.994;21.992;2023-11-19T10:30:57;99215.19;;;1.90;89.33
50710;BME280;37033;49.994;21.992;2023-11-19T10:33:31;99207.83;;;1.93;89.20
50710;BME280;37033;49.994;21.992;2023-11-19T10:36:01;99202.94;;;1.93;89.10
50710;BME280;37033;49.994;21.992;2023-11-19T10:38:32;99191.27;;;1.95;89.17
50710;BME280;37033;49.994;21.992;2023-11-19T10:41:04;99181.74;;;1.98;89.07
50710;BME280;37033;49.994;21.992;2023-11-19T10:43:45;99175.77;;;2.04;89.27
50710;BME280;37033;49.994;21.992;2023-11-19T10:46:16;99166.31;;;2.06;89.14
50710;BME280;37033;49.994;21.992;2023-11-19T10:48:50;99164.16;;;2.10;88.97
50710;BME280;37033;49.994;21.992;2023-11-19T10:51:21;99160.81;;;2.14;88.63
50710;BME280;37033;49.994;21.992;2023-11-19T10:53:54;99150.98;;;2.17;88.53
50710;BME280;37033;49.994;21.992;2023-11-19T10:56:31;99141.07;;;2.21;88.46
50710;BME280;37033;49.994;21.992;2023-11-19T10:59:02;99133.52;;;2.25;88.36
50710;BME280;37033;49.994;21.992;2023-11-19T11:01:44;99134.62;;;2.32;88.35
50710;BME280;37033;49.994;21.992;2023-11-19T11:04:22;99125.42;;;2.40;88.42
50710;BME280;37033;49.994;21.992;2023-11-19T11:06:55;99124.52;;;2.47;88.13
50710;BME280;37033;49.994;21.992;2023-11-19T11:09:28;99122.50;;;2.51;87.98
50710;BME280;37033;49.994;21.992;2023-11-19T11:12:00;99124.39;;;2.58;88.16
50710;BME280;37033;49.994;21.992;2023-11-19T11:14:33;99117.82;;;2.63;87.85
50710;BME280;37033;49.994;21.992;2023-11-19T11:17:05;99110.96;;;2.68;87.81
50710;BME280;37033;49.994;21.992;2023-11-19T11:19:38;99117.02;;;2.72;87.29
50710;BME280;37033;49.994;21.992;2023-11-19T11:22:10;99118.08;;;2.72;86.85
50710;BME280;37033;49.994;21.992;2023-11-19T11:25:05;99107.39;;;2.72;87.00
50710;BME280;37033;49.994;21.992;2023-11-19T11:30:39;99096.42;;;2.75;86.85
50710;BME280;37033;49.994;21.992;2023-11-19T11:33:26;99086.86;;;2.77;86.88
50710;BME280;37033;49.994;21.992;2023-11-19T11:36:10;99080.37;;;2.79;87.01
50710;BME280;37033;49.994;21.992;2023-11-19T11:38:43;99077.40;;;2.80;86.60
50710;BME280;37033;49.994;21.992;2023-11-19T11:41:19;99071.96;;;2.82;86.65
50710;BME280;37033;49.994;21.992;2023-11-19T11:43:50;99066.52;;;2.82;86.26
50710;BME280;37033;49.994;21.992;2023-11-19T11:49:26;99051.43;;;2.79;85.79
50710;BME280;37033;49.994;21.992;2023-11-19T11:52:03;99048.04;;;2.77;85.84
50710;BME280;37033;49.994;21.992;2023-11-19T11:54:32;99051.71;;;2.76;85.98
50710;BME280;37033;49.994;21.992;2023-11-19T11:57:06;99045.01;;;2.75;85.32
50710;BME280;37033;49.994;21.992;2023-11-19T11:59:48;99042.23;;;2.75;85.58
50710;BME280;37033;49.994;21.992;2023-11-19T12:02:21;99040.52;;;2.77;85.48
50710;BME280;37033;49.994;21.992;2023-11-19T12:04:53;99040.38;;;2.81;85.80
50710;BME280;37033;49.994;21.992;2023-11-19T12:07:25;99029.54;;;2.85;85.61
50710;BME280;37033;49.994;21.992;2023-11-19T12:10:08;99029.91;;;2.86;85.47
50710;BME280;37033;49.994;21.992;2023-11-19T12:12:41;99014.60;;;2.88;85.25
50710;BME280;37033;49.994;21.992;2023-11-19T12:15:12;99013.35;;;2.89;85.18
50710;BME280;37033;49.994;21.992;2023-11-19T12:17:48;99003.64;;;2.88;85.03
50710;BME280;37033;49.994;21.992;2023-11-19T12:20:22;98990.96;;;2.88;85.31
50710;BME280;37033;49.994;21.992;2023-11-19T12:22:54;98976.10;;;2.89;85.14
50710;BME280;37033;49.994;21.992;2023-11-19T12:25:24;98962.27;;;2.88;85.15
50710;BME280;37033;49.994;21.992;2023-11-19T12:27:55;98958.71;;;2.87;85.13
50710;BME280;37033;49.994;21.992;2023-11-19T12:30:26;98971.01;;;2.87;85.15
50710;BME280;37033;49.994;21.992;2023-11-19T12:32:58;98972.83;;;2.87;85.15
50710;BME280;37033;49.994;21.992;2023-11-19T12:35:29;98966.56;;;2.87;84.90
50710;BME280;37033;49.994;21.992;2023-11-19T12:38:00;98967.14;;;2.88;85.06
50710;BME280;37033;49.994;21.992;2023-11-19T12:40:30;98967.92;;;2.92;85.34
50710;BME280;37033;49.994;21.992;2023-11-19T12:43:01;98962.70;;;2.96;85.45
50710;BME280;37033;49.994;21.992;2023-11-19T12:45:37;98957.87;;;2.99;85.03
50710;BME280;37033;49.994;21.992;2023-11-19T12:48:09;98953.95;;;3.02;85.07
50710;BME280;37033;49.994;21.992;2023-11-19T12:50:56;98946.64;;;3.01;85.13
50710;BME280;37033;49.994;21.992;2023-11-19T12:53:28;98943.45;;;3.01;84.99
50710;BME280;37033;49.994;21.992;2023-11-19T12:56:08;98937.71;;;3.01;85.01
50710;BME280;37033;49.994;21.992;2023-11-19T12:58:39;98932.64;;;3.02;85.30
50710;BME280;37033;49.994;21.992;2023-11-19T13:01:17;98930.81;;;3.02;85.28
50710;BME280;37033;49.994;21.992;2023-11-19T13:03:48;98931.02;;;3.02;85.17
50710;BME280;37033;49.994;21.992;2023-11-19T13:06:20;98926.65;;;3.01;85.05
50710;BME280;37033;49.994;21.992;2023-11-19T13:08:51;98915.73;;;2.99;85.10
50710;BME280;37033;49.994;21.992;2023-11-19T13:11:33;98912.14;;;2.98;84.86
50710;BME280;37033;49.994;21.992;2023-11-19T13:14:05;98908.13;;;2.99;84.93
50710;BME280;37033;49.994;21.992;2023-11-19T13:16:38;98904.79;;;3.00;84.95
50710;BME280;37033;49.994;21.992;2023-11-19T13:19:09;98908.14;;;3.02;84.84
50710;BME280;37033;49.994;21.992;2023-11-19T13:21:40;98911.98;;;3.01;84.85
50710;BME280;37033;49.994;21.992;2023-11-19T13:24:11;98907.85;;;3.00;84.65
50710;BME280;37033;49.994;21.992;2023-11-19T13:26:42;98912.02;;;3.01;84.75
50710;BME280;37033;49.994;21.992;2023-11-19T13:29:12;98908.22;;;3.00;84.35